createdAt,value
2018-09-13T00:00:43.207Z,16.90
2018-09-13T00:03:12.579Z,16.93
2018-09-13T00:05:41.958Z,17.04
2018-09-13T00:08:11.348Z,17.23
2018-09-13T00:10:40.687Z,17.10
2018-09-13T00:13:10.028Z,17.08
2018-09-13T00:15:39.426Z,16.96
2018-09-13T00:18:08.758Z,17.07
2018-09-13T00:20:38.090Z,17.07
2018-09-13T00:23:08.382Z,17.08
2018-09-13T00:25:37.728Z,17.14
2018-09-13T00:28:07.173Z,17.20
2018-09-13T00:30:36.517Z,17.25
2018-09-13T00:33:05.857Z,17.10
2018-09-13T00:35:35.118Z,17.32
2018-09-13T00:38:04.416Z,17.28
2018-09-13T00:40:33.681Z,17.37
2018-09-13T00:43:02.971Z,17.34
2018-09-13T00:45:32.308Z,17.38
2018-09-13T00:48:02.013Z,17.42
2018-09-13T00:50:31.510Z,17.44
2018-09-13T00:53:00.819Z,17.29
2018-09-13T00:55:30.153Z,17.13
2018-09-13T00:57:59.466Z,17.00
2018-09-13T01:00:28.759Z,17.09
2018-09-13T01:02:58.049Z,17.00
2018-09-13T01:05:27.354Z,16.81
2018-09-13T01:07:57.242Z,16.67
2018-09-13T01:10:26.634Z,16.59
2018-09-13T01:12:55.990Z,16.57
2018-09-13T01:15:25.387Z,16.54
2018-09-13T01:17:54.773Z,16.57
2018-09-13T01:20:24.224Z,16.67
2018-09-13T01:22:53.586Z,16.60
2018-09-13T01:25:22.995Z,16.57
2018-09-13T01:27:52.401Z,16.52
2018-09-13T01:30:22.625Z,16.38
2018-09-13T01:32:52.102Z,16.47
2018-09-13T01:35:21.483Z,16.52
2018-09-13T01:37:50.988Z,16.55
2018-09-13T01:40:20.427Z,16.46
2018-09-13T01:42:49.789Z,16.51
2018-09-13T01:45:19.293Z,16.59
2018-09-13T01:47:48.973Z,16.63
2018-09-13T01:50:18.554Z,16.68
2018-09-13T01:52:48.264Z,16.66
2018-09-13T01:55:17.779Z,16.64
2018-09-13T01:57:47.280Z,16.72
2018-09-13T02:00:16.706Z,16.70
2018-09-13T02:02:46.194Z,16.81
2018-09-13T02:05:15.573Z,16.78
2018-09-13T02:07:45.213Z,16.67
2018-09-13T02:10:14.679Z,16.58
2018-09-13T02:12:44.149Z,16.61
2018-09-13T02:15:14.066Z,16.54
2018-09-13T02:17:43.624Z,16.33
2018-09-13T02:20:13.011Z,16.37
2018-09-13T02:22:42.837Z,16.36
2018-09-13T02:25:12.360Z,16.29
2018-09-13T02:27:41.802Z,16.23
2018-09-13T02:30:11.239Z,16.09
2018-09-13T02:32:40.804Z,16.12
2018-09-13T02:35:10.595Z,16.17
2018-09-13T02:37:40.478Z,16.25
2018-09-13T02:40:10.015Z,16.41
2018-09-13T02:42:39.335Z,16.36
2018-09-13T02:45:08.818Z,16.45
2018-09-13T02:47:38.271Z,16.40
2018-09-13T02:50:07.730Z,16.50
2018-09-13T02:52:37.251Z,16.53
2018-09-13T02:55:06.810Z,16.51
2018-09-13T02:57:36.116Z,16.34
2018-09-13T03:00:06.767Z,16.38
2018-09-13T03:02:36.065Z,16.39
2018-09-13T03:05:05.377Z,16.47
2018-09-13T03:07:34.736Z,16.43
2018-09-13T03:10:04.068Z,16.31
2018-09-13T03:12:33.367Z,16.27
2018-09-13T03:15:02.730Z,16.34
2018-09-13T03:17:32.044Z,16.52
2018-09-13T03:20:01.411Z,16.61
2018-09-13T03:22:31.125Z,16.46
2018-09-13T03:25:00.420Z,16.27
2018-09-13T03:27:29.748Z,16.05
2018-09-13T03:29:59.140Z,16.01
2018-09-13T03:32:28.486Z,16.08
2018-09-13T03:34:57.905Z,16.22
2018-09-13T03:37:27.249Z,16.24
2018-09-13T03:39:56.648Z,16.36
2018-09-13T03:42:25.948Z,16.35
2018-09-13T03:44:56.375Z,16.26
2018-09-13T03:47:25.675Z,16.06
2018-09-13T03:49:55.033Z,15.98
2018-09-13T03:52:24.494Z,16.09
2018-09-13T03:54:53.923Z,16.03
2018-09-13T03:57:23.217Z,16.09
2018-09-13T03:59:52.556Z,16.18
2018-09-13T04:02:21.853Z,16.05
2018-09-13T04:04:51.207Z,16.07
2018-09-13T04:07:20.809Z,16.21
2018-09-13T04:09:50.104Z,16.37
2018-09-13T04:12:19.504Z,16.29
2018-09-13T04:14:48.863Z,16.34
2018-09-13T04:17:18.266Z,16.33
2018-09-13T04:19:48.016Z,16.40
2018-09-13T04:22:18.154Z,16.39
2018-09-13T04:24:47.508Z,16.26
2018-09-13T04:27:16.878Z,16.24
2018-09-13T04:29:46.686Z,16.33
2018-09-13T04:32:16.021Z,16.42
2018-09-13T04:34:45.808Z,16.36
2018-09-13T04:37:15.165Z,16.31
2018-09-13T04:39:44.566Z,16.07
2018-09-13T04:42:13.963Z,16.31
2018-09-13T04:44:43.280Z,16.40
2018-09-13T04:47:12.630Z,16.42
2018-09-13T04:49:41.899Z,16.55
2018-09-13T04:52:11.352Z,16.47
2018-09-13T04:54:40.682Z,16.48
2018-09-13T04:57:10.170Z,16.53
2018-09-13T04:59:39.490Z,16.45
2018-09-13T05:02:08.848Z,16.37
2018-09-13T05:04:38.144Z,16.38
2018-09-13T05:07:07.616Z,16.47
2018-09-13T05:09:37.029Z,16.46
2018-09-13T05:12:06.366Z,16.37
2018-09-13T05:14:36.471Z,16.33
2018-09-13T05:17:05.803Z,16.39
2018-09-13T05:19:35.104Z,16.44
2018-09-13T05:22:04.521Z,16.51
2018-09-13T05:24:33.888Z,16.42
2018-09-13T05:27:03.258Z,16.52
2018-09-13T05:29:32.696Z,16.58
2018-09-13T05:32:02.094Z,16.47
2018-09-13T05:34:31.461Z,15.99
2018-09-13T05:37:01.361Z,15.98
2018-09-13T05:39:30.804Z,16.05
2018-09-13T05:42:00.168Z,16.04
2018-09-13T05:44:29.770Z,16.20
2018-09-13T05:46:59.121Z,16.34
2018-09-13T05:49:28.504Z,16.52
2018-09-13T05:51:58.135Z,16.58
2018-09-13T05:54:27.938Z,16.42
2018-09-13T05:56:57.342Z,16.46
2018-09-13T05:59:26.890Z,16.48
2018-09-13T06:01:56.237Z,16.44
2018-09-13T06:04:25.736Z,16.25
2018-09-13T06:06:55.095Z,16.41
2018-09-13T06:09:24.408Z,16.59
2018-09-13T06:11:53.714Z,16.64
2018-09-13T06:14:23.078Z,16.81
2018-09-13T06:16:52.347Z,16.90
2018-09-13T06:19:21.637Z,16.90
2018-09-13T06:21:51.281Z,17.10
2018-09-13T06:24:20.587Z,17.36
2018-09-13T06:26:49.996Z,17.63
2018-09-13T06:29:19.348Z,17.83
2018-09-13T06:31:48.702Z,18.03
2018-09-13T06:34:18.006Z,18.08
2018-09-13T06:36:47.424Z,18.74
2018-09-13T06:39:16.816Z,19.26
2018-09-13T06:41:46.175Z,19.13
2018-09-13T06:44:15.616Z,19.30
2018-09-13T06:46:45.011Z,19.59
2018-09-13T06:49:14.309Z,19.72
2018-09-13T06:51:43.781Z,19.68
2018-09-13T06:54:13.132Z,19.81
2018-09-13T06:56:42.496Z,20.05
2018-09-13T06:59:12.025Z,20.18
2018-09-13T07:01:41.353Z,20.19
2018-09-13T07:04:10.650Z,19.94
2018-09-13T07:06:40.495Z,20.09
2018-09-13T07:09:13.034Z,20.68
2018-09-13T07:11:42.955Z,21.28
2018-09-13T07:14:12.353Z,21.54
2018-09-13T07:16:41.657Z,22.92
2018-09-13T07:19:11.135Z,24.90
2018-09-13T07:21:40.465Z,26.86
2018-09-13T07:24:09.871Z,27.05
2018-09-13T07:26:39.615Z,27.32
2018-09-13T07:29:09.024Z,27.18
2018-09-13T07:31:38.488Z,26.90
2018-09-13T07:34:08.227Z,26.58
2018-09-13T07:36:37.617Z,26.40
2018-09-13T07:39:11.742Z,26.42
2018-09-13T07:41:41.148Z,26.14
2018-09-13T07:44:10.476Z,25.02
2018-09-13T07:46:40.155Z,24.04
2018-09-13T07:49:09.714Z,23.59
2018-09-13T07:51:39.072Z,22.94
2018-09-13T07:54:08.457Z,23.42
2018-09-13T07:56:37.836Z,23.60
2018-09-13T07:59:07.378Z,24.21
2018-09-13T08:01:36.785Z,24.61
2018-09-13T08:04:06.210Z,24.35
2018-09-13T08:06:35.542Z,23.42
2018-09-13T08:09:08.977Z,22.96
2018-09-13T08:11:38.339Z,22.53
2018-09-13T08:14:07.768Z,22.59
2018-09-13T08:16:37.141Z,22.96
2018-09-13T08:19:06.441Z,22.56
2018-09-13T08:21:35.842Z,22.45
2018-09-13T08:24:05.219Z,22.01
2018-09-13T08:26:34.526Z,21.95
2018-09-13T08:29:03.847Z,22.00
2018-09-13T08:31:33.734Z,22.83
2018-09-13T08:34:03.079Z,24.21
2018-09-13T08:36:32.407Z,23.79
2018-09-13T08:39:01.941Z,24.23
2018-09-13T08:41:31.279Z,25.17
2018-09-13T08:44:00.614Z,25.61
2018-09-13T08:46:30.154Z,25.03
2018-09-13T08:48:59.623Z,25.05
2018-09-13T08:51:29.022Z,25.97
2018-09-13T08:53:58.878Z,26.47
2018-09-13T08:56:28.274Z,27.89
2018-09-13T08:58:57.613Z,28.96
2018-09-13T09:01:27.001Z,28.77
2018-09-13T09:03:56.337Z,28.48
2018-09-13T09:06:25.724Z,30.03
2018-09-13T09:08:55.096Z,30.86
2018-09-13T09:11:24.402Z,32.86
2018-09-13T09:13:53.734Z,32.15
2018-09-13T09:16:23.333Z,31.51
2018-09-13T09:18:52.697Z,30.59
2018-09-13T09:21:22.252Z,30.92
2018-09-13T09:23:51.691Z,30.18
2018-09-13T09:26:21.073Z,28.16
2018-09-13T09:28:50.540Z,26.85
2018-09-13T09:31:19.935Z,26.31
2018-09-13T09:33:49.445Z,24.82
2018-09-13T09:36:18.885Z,24.68
2018-09-13T09:38:48.954Z,24.55
2018-09-13T09:41:18.259Z,24.22
2018-09-13T09:43:47.594Z,22.72
2018-09-13T09:46:16.904Z,22.66
2018-09-13T09:48:46.258Z,22.47
2018-09-13T09:51:15.615Z,22.66
2018-09-13T09:53:45.071Z,22.67
2018-09-13T09:56:14.462Z,22.73
2018-09-13T09:58:43.710Z,22.73
2018-09-13T10:01:18.493Z,22.58
2018-09-13T10:03:47.901Z,22.41
2018-09-13T10:06:17.235Z,22.33
2018-09-13T10:08:46.542Z,21.80
2018-09-13T10:11:15.898Z,21.97
2018-09-13T10:13:45.351Z,22.17
2018-09-13T10:16:20.518Z,22.33
2018-09-13T10:18:53.938Z,22.10
2018-09-13T10:21:28.562Z,22.21
2018-09-13T10:24:02.983Z,21.99
2018-09-13T10:26:37.510Z,22.29
2018-09-13T10:29:12.112Z,22.63
2018-09-13T10:31:47.188Z,22.46
2018-09-13T10:34:21.757Z,22.38
2018-09-13T10:36:56.232Z,22.35
2018-09-13T10:39:30.740Z,22.18
2018-09-13T10:42:05.460Z,22.17
2018-09-13T10:44:39.947Z,22.28
2018-09-13T10:47:15.130Z,22.42
2018-09-13T10:49:50.434Z,22.79
2018-09-13T18:39:53.385Z,18.45
2018-09-13T18:42:24.865Z,18.35
2018-09-13T18:44:54.372Z,18.31
2018-09-13T18:47:23.735Z,18.30
2018-09-13T18:49:53.083Z,18.30
2018-09-13T18:52:23.099Z,18.34
2018-09-13T18:54:52.423Z,18.28
2018-09-13T18:57:21.753Z,18.23
2018-09-13T18:59:52.134Z,18.22
2018-09-13T19:02:21.550Z,18.23
2018-09-13T19:04:50.818Z,17.99
2018-09-13T19:07:20.150Z,17.78
2018-09-13T19:09:49.954Z,17.83
2018-09-13T19:12:20.836Z,17.93
2018-09-13T19:14:50.242Z,18.01
2018-09-13T19:17:21.160Z,17.93
2018-09-13T19:19:50.961Z,17.92
2018-09-13T19:22:20.443Z,18.00
2018-09-13T19:24:50.165Z,17.86
2018-09-13T19:27:20.069Z,17.74
2018-09-13T19:29:49.448Z,17.68
2018-09-13T19:32:19.730Z,17.67
2018-09-13T19:34:49.281Z,17.37
2018-09-13T19:37:19.306Z,17.20
2018-09-13T19:39:49.138Z,17.06
2018-09-13T19:42:20.087Z,17.18
2018-09-13T19:44:50.795Z,17.21
2018-09-13T19:47:20.982Z,17.33
2018-09-13T19:49:51.168Z,17.30
2018-09-13T19:52:21.399Z,17.04
2018-09-13T19:54:51.275Z,16.99
2018-09-13T19:57:21.786Z,17.04
2018-09-13T19:59:51.119Z,16.96
2018-09-13T20:02:21.202Z,17.01
2018-09-13T20:04:50.559Z,16.98
2018-09-13T20:07:20.893Z,16.96
2018-09-13T20:09:50.235Z,16.92
2018-09-13T20:12:19.723Z,16.84
2018-09-13T20:14:48.986Z,16.86
2018-09-13T20:17:18.384Z,16.90
2018-09-13T20:19:47.890Z,16.79
2018-09-13T20:22:17.408Z,16.81
2018-09-13T20:24:47.029Z,16.81
2018-09-13T20:27:16.288Z,16.74
2018-09-13T20:29:45.578Z,16.77
2018-09-13T20:32:14.935Z,16.66
2018-09-13T20:34:44.253Z,16.58
2018-09-13T20:37:13.641Z,16.63
2018-09-13T20:39:43.553Z,16.40
2018-09-13T20:42:12.980Z,16.37
2018-09-13T20:44:43.121Z,16.52
2018-09-13T20:47:12.657Z,16.27
2018-09-13T20:49:42.084Z,16.21
2018-09-13T20:52:11.438Z,16.23
2018-09-13T20:54:40.880Z,16.40
2018-09-13T20:57:10.275Z,16.42
2018-09-13T20:59:39.840Z,16.47
2018-09-13T21:02:09.752Z,16.39
2018-09-13T21:04:39.118Z,16.22
2018-09-13T21:07:08.617Z,16.29
2018-09-13T21:09:38.456Z,16.39
2018-09-13T21:12:07.941Z,16.42
2018-09-13T21:14:37.750Z,16.27
2018-09-13T21:17:07.226Z,16.28
2018-09-13T21:19:36.539Z,16.28
2018-09-13T21:22:05.901Z,16.32
2018-09-13T21:24:35.254Z,16.27
2018-09-13T21:27:04.819Z,16.30
2018-09-13T21:29:34.211Z,16.25
2018-09-13T21:32:03.894Z,16.29
2018-09-13T21:34:33.187Z,16.22
2018-09-13T21:37:02.521Z,16.19
2018-09-13T21:39:32.046Z,16.05
2018-09-13T21:42:01.386Z,15.88
2018-09-13T21:44:30.801Z,15.98
2018-09-13T21:47:00.215Z,15.97
2018-09-13T21:49:29.583Z,15.87
2018-09-13T21:51:58.882Z,15.92
2018-09-13T21:54:28.231Z,15.90
2018-09-13T21:56:57.512Z,15.73
2018-09-13T21:59:26.791Z,15.88
2018-09-13T22:01:56.114Z,15.94
2018-09-13T22:04:25.429Z,15.97
2018-09-13T22:06:54.717Z,15.94
2018-09-13T22:09:24.015Z,15.87
2018-09-13T22:11:53.368Z,15.73
2018-09-13T22:14:22.859Z,15.74
2018-09-13T22:16:52.675Z,15.63
2018-09-13T22:19:22.104Z,15.61
2018-09-13T22:21:51.471Z,15.59
2018-09-13T22:24:20.950Z,15.78
2018-09-13T22:26:50.259Z,15.73
2018-09-13T22:29:19.617Z,15.71
2018-09-13T22:31:49.032Z,15.68
2018-09-13T22:34:18.523Z,15.58
2018-09-13T22:36:47.835Z,15.62
2018-09-13T22:39:17.227Z,15.59
2018-09-13T22:41:46.524Z,15.67
2018-09-13T22:44:16.196Z,15.66
2018-09-13T22:46:45.542Z,15.68
2018-09-13T22:49:14.809Z,15.56
2018-09-13T22:51:44.080Z,15.60
2018-09-13T22:54:20.574Z,15.55
2018-09-13T22:56:49.974Z,15.48
2018-09-13T22:59:19.370Z,15.48
2018-09-13T23:01:49.886Z,15.37
2018-09-13T23:04:19.318Z,15.17
2018-09-13T23:06:48.736Z,15.13
2018-09-13T23:09:18.104Z,15.14
2018-09-13T23:11:47.447Z,15.01
2018-09-13T23:14:16.775Z,14.96
2018-09-13T23:16:49.579Z,15.03
2018-09-13T23:19:15.794Z,14.90
2018-09-13T23:21:45.154Z,14.93
2018-09-13T23:24:14.487Z,14.77
2018-09-13T23:26:43.758Z,14.68
2018-09-13T23:29:13.056Z,14.68
2018-09-13T23:31:42.397Z,14.81
2018-09-13T23:34:11.636Z,14.85
2018-09-13T23:36:40.986Z,14.71
2018-09-13T23:39:11.420Z,14.73
2018-09-13T23:41:41.576Z,14.67
2018-09-13T23:44:10.851Z,14.54
2018-09-13T23:46:40.758Z,14.36
2018-09-13T23:49:10.044Z,14.46
2018-09-13T23:51:39.382Z,14.53
2018-09-13T23:54:08.795Z,14.51
2018-09-13T23:56:38.085Z,14.60
2018-09-13T23:59:07.396Z,14.57
